Baileyville, IL

7:33 PM CDT on August 27, 2016 (GMT -0500)
Albertus

Weather History for KFEP - April, 2013

Change the Weather History Date:

Monday, April 22, 2013

  Actual Average Record
Temperature  
Mean Temperature 56 °F -  
Max Temperature 72 °F 59 °F 87 °F (1985)
Min Temperature 41 °F 38 °F 21 °F (1986)
Degree Days  
Heating Degree Days 8    
Growing Degree Days 6 (Base 50)    
Moisture  
Dew Point 38 °F    
Average Humidity 55    
Maximum Humidity 78    
Minimum Humidity 27    
Precipitation  
Precipitation 0.00 in - - ()
Sea Level Pressure  
Sea Level Pressure 30.16 in    
Wind  
Wind Speed 11 mph (SE)    
Max Wind Speed 18 mph    
Max Gust Speed 24 mph    
Visibility 10 miles    
Events Rain    
Averages and records for this station are not official NWS values.
T = Trace of Precipitation, MM = Missing Value Source: NWS Daily Summary

Daily Weather History Graph

Daily Weather History Graph

Search for Another Location

Airport or City:

Trip Planner

Search our weather history database for the weather conditions in past years. The results will help you decide how hot, cold, wet, or windy it might be!

Date:

Astronomy

Apr. 22, 2013 Rise Set
Actual Time 6:06 AM CDT 7:47 PM CDT
Civil Twilight 5:36 AM CDT 8:17 PM CDT
Nautical Twilight 5:00 AM CDT 8:53 PM CDT
Astronomical Twilight 4:21 AM CDT 9:32 PM CDT
Moon 4:33 PM CDT (4/22) 4:04 AM CDT (4/22)
Length of Visible Light 14h 41m
Length of Day
13h 41m
Waxing Gibbous, 88% of the Moon is Illuminated
Apr 22
Waxing Gibbous
Apr 25
Full
May 2
Last Quarter
May 9
New
May 17
First Quarter

Hourly Weather History & Observations

Time (CDT) Temp. Windchill Dew Point Humidity Pressure Visibility Wind Dir Wind Speed Gust Speed Precip Events Conditions
12:15 AM 43.7 °F 38.1 °F 36.1 °F 75% 30.29 in 10.0 mi SSE 10.4 mph - N/A   Clear
12:35 AM 43.7 °F 37.3 °F 37.4 °F 78% 30.28 in 10.0 mi SE 12.7 mph - N/A   Clear
12:55 AM 43.7 °F 38.1 °F 37.4 °F 78% 30.28 in 10.0 mi SE 10.4 mph - N/A   Clear
1:15 AM 43.7 °F 37.3 °F 36.7 °F 76% 30.28 in 10.0 mi SE 12.7 mph - N/A   Clear
1:35 AM 43.7 °F 36.6 °F 35.8 °F 74% 30.27 in 10.0 mi SE 15.0 mph - N/A   Clear
1:55 AM 43.7 °F 37.3 °F 36.1 °F 75% 30.26 in 10.0 mi SE 12.7 mph - N/A   Clear
2:15 AM 43.7 °F 36.9 °F 36.1 °F 75% 30.26 in 10.0 mi SE 13.8 mph - N/A   Clear
2:35 AM 43.7 °F 36.9 °F 36.1 °F 75% 30.26 in 10.0 mi SE 13.8 mph - N/A   Clear
2:55 AM 43.7 °F 37.3 °F 36.1 °F 75% 30.26 in 10.0 mi SE 12.7 mph - N/A   Clear
3:15 AM 43.7 °F 38.6 °F 36.1 °F 75% 30.26 in 10.0 mi SE 9.2 mph - N/A   Mostly Cloudy
3:35 AM 42.1 °F 37.1 °F 34.9 °F 76% 30.26 in 10.0 mi SE 8.1 mph - N/A   Overcast
3:55 AM 43.7 °F 39.7 °F 36.1 °F 75% 30.26 in 10.0 mi SSE 6.9 mph - N/A   Overcast
4:15 AM 43.7 °F 37.7 °F 36.1 °F 75% 30.25 in 10.0 mi SE 11.5 mph - N/A   Overcast
4:35 AM 43.7 °F 39.1 °F 36.5 °F 76% 30.26 in 10.0 mi SSE 8.1 mph - N/A   Overcast
4:55 AM 43.7 °F - 35.6 °F 73% 30.26 in 10.0 mi Calm Calm - N/A   Overcast
5:15 AM 43.7 °F 37.7 °F 35.4 °F 73% 30.24 in 10.0 mi SE 11.5 mph - N/A   Overcast
5:35 AM 43.9 °F 39.3 °F 34.3 °F 69% 30.24 in 10.0 mi SSE 8.1 mph - N/A   Overcast
5:55 AM 43.7 °F 39.7 °F 34.2 °F 69% 30.25 in 10.0 mi SE 6.9 mph - N/A   Overcast
6:15 AM 43.7 °F 41.1 °F 34.7 °F 71% 30.24 in 10.0 mi ESE 4.6 mph - N/A   Overcast
6:35 AM 41.4 °F 38.4 °F 34.2 °F 76% 30.24 in 10.0 mi East 4.6 mph - N/A   Overcast
6:55 AM 43.7 °F 41.1 °F 35.8 °F 74% 30.24 in 10.0 mi ESE 4.6 mph - N/A   Overcast
7:15 AM 45.1 °F 41.4 °F 34.9 °F 67% 30.25 in 10.0 mi ESE 6.9 mph - N/A   Overcast
7:35 AM 46.4 °F 44.3 °F 35.6 °F 66% 30.26 in 10.0 mi SE 4.6 mph - N/A   Overcast
7:55 AM 46.4 °F 42.9 °F 35.6 °F 66% 30.25 in 10.0 mi SE 6.9 mph - N/A   Overcast
8:15 AM 49.1 °F - 36.5 °F 62% 30.25 in 10.0 mi SSE 9.2 mph - N/A   Mostly Cloudy
8:35 AM 51.6 °F - 37.9 °F 60% 30.24 in 10.0 mi SSE 12.7 mph - N/A   Clear
8:55 AM 54.0 °F - 38.8 °F 57% 30.23 in 10.0 mi South 10.4 mph 16.1 mph N/A   Scattered Clouds
9:15 AM 56.5 °F - 36.7 °F 48% 30.23 in 10.0 mi SSE 15.0 mph 19.6 mph N/A   Scattered Clouds
9:35 AM 54.7 °F - 37.6 °F 53% 30.23 in 10.0 mi SSE 12.7 mph 18.4 mph N/A   Mostly Cloudy
9:55 AM 59.0 °F - 38.7 °F 47% 30.22 in 10.0 mi SSE 15.0 mph - N/A   Scattered Clouds
10:15 AM 59.0 °F - 37.6 °F 45% 30.22 in 10.0 mi South 15.0 mph - N/A   Scattered Clouds
10:35 AM 60.8 °F - 38.1 °F 43% 30.23 in 10.0 mi SSE 12.7 mph 17.3 mph N/A   Scattered Clouds
10:55 AM 61.0 °F - 38.5 °F 43% 30.23 in 10.0 mi SSE 12.7 mph 18.4 mph N/A   Scattered Clouds
11:15 AM 64.0 °F - 39.0 °F 40% 30.22 in 10.0 mi SSE 13.8 mph - N/A   Clear
11:35 AM 62.8 °F - 38.8 °F 41% 30.22 in 10.0 mi SSE 15.0 mph 18.4 mph N/A   Scattered Clouds
11:55 AM 63.7 °F - 40.3 °F 42% 30.21 in 10.0 mi SSE 13.8 mph - N/A   Scattered Clouds
12:15 PM 64.2 °F - 39.4 °F 40% 30.20 in 10.0 mi SSE 12.7 mph 18.4 mph N/A   Clear
12:35 PM 64.4 °F - 41.0 °F 42% 30.19 in 10.0 mi SSE 12.7 mph - N/A   Clear
12:55 PM 66.2 °F - 41.0 °F 40% 30.18 in 10.0 mi SSE 17.3 mph - N/A   Clear
1:15 PM 66.6 °F - 40.3 °F 38% 30.17 in 10.0 mi South 12.7 mph - N/A   Clear
1:35 PM 67.1 °F - 39.0 °F 36% 30.16 in 10.0 mi SSE 10.4 mph 18.4 mph N/A   Clear
1:55 PM 67.1 °F - 38.5 °F 35% 30.16 in 10.0 mi SSE 12.7 mph - N/A   Clear
2:15 PM 69.3 °F - 39.6 °F 34% 30.15 in 10.0 mi SE 17.3 mph 20.7 mph N/A   Clear
2:35 PM 71.1 °F - 40.3 °F 33% 30.14 in 10.0 mi SE 15.0 mph 19.6 mph N/A   Clear
2:55 PM 68.5 °F - 36.9 °F 31% 30.11 in 10.0 mi SSE 16.1 mph 24.2 mph N/A   Clear
3:15 PM 69.3 °F - 36.7 °F 30% 30.11 in 10.0 mi SSE 16.1 mph 21.9 mph N/A   Clear
3:35 PM 71.6 °F - 37.4 °F 29% 30.11 in 10.0 mi SSE 16.1 mph 24.2 mph N/A   Clear
3:55 PM 68.2 °F - 36.5 °F 31% 30.10 in 10.0 mi SSE 16.1 mph 20.7 mph N/A   Clear
4:15 PM 72.0 °F - 37.0 °F 28% 30.08 in 10.0 mi SE 16.1 mph 21.9 mph N/A   Clear
4:35 PM 71.8 °F - 35.8 °F 27% 30.07 in 10.0 mi SE 15.0 mph 20.7 mph N/A   Clear
4:55 PM 70.0 °F - 35.2 °F 28% 30.06 in 10.0 mi SE 16.1 mph 20.7 mph N/A   Clear
5:15 PM 69.8 °F - 35.2 °F 28% 30.06 in 10.0 mi SSE 15.0 mph - N/A   Clear
5:35 PM 66.6 °F - 35.4 °F 32% 30.05 in 10.0 mi SE 15.0 mph 21.9 mph N/A   Clear
5:55 PM 66.4 °F - 37.2 °F 34% 30.06 in 10.0 mi SSE 15.0 mph - N/A   Clear
6:15 PM 66.6 °F - 36.5 °F 33% 30.05 in 10.0 mi SSE 18.4 mph 23.0 mph N/A   Clear
6:35 PM 65.1 °F - 37.4 °F 36% 30.05 in 10.0 mi SSE 16.1 mph - N/A   Clear
6:55 PM 62.1 °F - 39.4 °F 43% 30.04 in 10.0 mi SSE 13.8 mph - N/A   Clear
7:15 PM 60.8 °F - 41.4 °F 49% 30.04 in 10.0 mi SE 10.4 mph - N/A   Clear
7:35 PM 59.0 °F - 41.0 °F 51% 30.04 in 10.0 mi SE 10.4 mph - N/A   Clear
7:55 PM 59.0 °F - 41.9 °F 53% 30.03 in 10.0 mi SE 10.4 mph - N/A   Clear
8:15 PM 56.5 °F - 41.4 °F 57% 30.03 in 10.0 mi SE 9.2 mph - N/A   Clear
8:35 PM 56.5 °F - 41.0 °F 56% 30.04 in 10.0 mi SE 8.1 mph - N/A   Scattered Clouds
8:55 PM 54.3 °F - 41.4 °F 62% 30.04 in 10.0 mi ESE 8.1 mph - N/A   Mostly Cloudy
9:15 PM 54.0 °F - 42.3 °F 65% 30.04 in 10.0 mi ESE 8.1 mph - N/A   Mostly Cloudy
9:35 PM 55.4 °F - 42.6 °F 62% 30.05 in 10.0 mi SE 6.9 mph - N/A   Mostly Cloudy
9:55 PM 55.4 °F - 42.8 °F 63% 30.05 in 10.0 mi ESE 8.1 mph - N/A   Overcast
10:15 PM 55.2 °F - 43.0 °F 63% 30.05 in 10.0 mi ESE 8.1 mph - N/A   Mostly Cloudy
10:35 PM 53.6 °F - 42.8 °F 67% 30.04 in 10.0 mi SE 9.2 mph - N/A   Mostly Cloudy
10:55 PM 54.5 °F - 43.3 °F 66% 30.04 in 10.0 mi ESE 6.9 mph - N/A   Overcast
11:15 PM 55.4 °F - 43.5 °F 64% 30.04 in 10.0 mi SE 9.2 mph - N/A   Overcast
11:35 PM 56.8 °F - 42.1 °F 58% 30.03 in 10.0 mi SSE 9.2 mph 17.3 mph N/A   Overcast
11:55 PM 55.0 °F - 43.9 °F 66% 30.03 in 10.0 mi SSE 8.1 mph - N/A Rain Light Rain